Time;durP1;ratioP1;P1;durP2;ratioP2;P2;SDS_P1;SDS_P2;PMS_P1;PMS_P2;Temp;Humidity;BMP_temperature;BMP_pressure;BME280_temperature;BME280_humidity;BME280_pressure;Samples;Min_cycle;Max_cycle;Signal;HPM_P1;HPM_P2
2022/04/20 00:00:55;;;;;;;;;29.80;23.40;;;;;16.21;46.56;100636.94;2104195;28;46785;-60
2022/04/20 00:01:55;;;;;;;;;25.00;22.75;;;;;16.21;46.48;100642.31;2099169;28;47238;-61
2022/04/20 00:02:56;;;;;;;;;19.00;17.75;;;;;16.21;46.50;100638.75;2102738;27;47358;-62
2022/04/20 00:03:56;;;;;;;;;23.25;22.50;;;;;16.22;46.67;100638.69;2103972;28;47802;-62
2022/04/20 00:04:57;;;;;;;;;24.75;23.75;;;;;16.22;46.91;100640.50;2098671;28;47627;-61
2022/04/20 00:05:57;;;;;;;;;24.25;21.75;;;;;16.23;46.36;100639.56;2103869;28;47559;-61
2022/04/20 00:06:58;;;;;;;;;25.00;21.75;;;;;16.23;46.31;100640.44;2095188;28;48468;-62
2022/04/20 00:07:59;;;;;;;;;27.50;24.75;;;;;16.24;46.85;100638.63;2103089;28;48000;-62
2022/04/20 00:08:59;;;;;;;;;22.40;21.80;;;;;16.24;46.72;100638.63;2099768;28;47828;-62
2022/04/20 00:10:00;;;;;;;;;29.50;26.25;;;;;16.24;46.60;100633.25;2104265;28;48002;-62
2022/04/20 00:11:01;;;;;;;;;26.00;26.00;;;;;16.22;46.75;100630.66;2104176;28;47956;-62
2022/04/20 00:12:01;;;;;;;;;26.20;24.20;;;;;16.22;46.91;100629.78;2094650;28;47677;-62
2022/04/20 00:13:02;;;;;;;;;31.75;28.75;;;;;16.20;46.30;100635.22;2095091;28;47843;-62
2022/04/20 00:14:02;;;;;;;;;27.25;27.25;;;;;16.20;46.83;100635.22;2093649;28;47531;-62
2022/04/20 00:15:03;;;;;;;;;27.00;26.00;;;;;16.19;46.82;100631.69;2092101;28;47336;-62
2022/04/20 00:16:04;;;;;;;;;26.00;23.80;;;;;16.19;47.00;100636.16;2069335;28;47620;-62
2022/04/20 00:17:05;;;;;;;;;25.75;25.75;;;;;16.17;46.78;100633.56;2077720;28;47987;-61
2022/04/20 00:18:05;;;;;;;;;27.50;27.50;;;;;16.16;46.34;100633.63;2100343;27;47754;-62
2022/04/20 00:19:06;;;;;;;;;28.00;28.00;;;;;16.15;46.96;100630.09;2093409;28;47205;-62
2022/04/20 00:20:07;;;;;;;;;24.50;23.50;;;;;16.16;46.99;100625.59;2099198;28;48010;-62
2022/04/20 00:21:07;;;;;;;;;32.40;29.20;;;;;16.17;46.90;100635.38;2094872;28;46427;-62
2022/04/20 00:22:08;;;;;;;;;28.00;27.00;;;;;16.14;46.88;100636.38;2084356;28;47867;-61
2022/04/20 00:23:08;;;;;;;;;31.00;28.00;;;;;16.13;46.52;100633.75;2088563;28;47652;-62
2022/04/20 00:24:09;;;;;;;;;28.50;27.00;;;;;16.11;46.96;100636.50;2085867;28;47546;-60
2022/04/20 00:25:09;;;;;;;;;28.75;27.25;;;;;16.11;46.69;100633.81;2086180;28;47662;-62
2022/04/20 00:26:10;;;;;;;;;31.00;30.00;;;;;16.11;46.71;100635.63;2090720;28;47470;-62
2022/04/20 00:27:10;;;;;;;;;28.50;27.50;;;;;16.10;46.48;100633.91;2089805;28;47665;-61
2022/04/20 00:28:11;;;;;;;;;26.75;25.00;;;;;16.10;47.07;100636.56;2107869;27;46802;-61
2022/04/20 00:29:11;;;;;;;;;28.75;28.75;;;;;16.07;46.60;100629.56;2101379;27;47772;-60
2022/04/20 00:30:12;;;;;;;;;31.25;29.00;;;;;16.07;46.60;100626.00;2102372;27;47599;-61
2022/04/20 00:31:13;;;;;;;;;31.80;30.20;;;;;16.06;46.66;100629.63;2108153;27;47411;-62
2022/04/20 00:32:13;;;;;;;;;30.50;29.00;;;;;16.04;46.70;100634.19;2097808;27;47515;-62
2022/04/20 00:33:13;;;;;;;;;29.00;28.75;;;;;16.02;47.22;100630.72;2105725;27;47590;-62
2022/04/20 00:34:14;;;;;;;;;27.50;23.75;;;;;15.99;47.23;100630.84;2104669;27;47739;-59
2022/04/20 00:35:14;;;;;;;;;24.25;23.25;;;;;15.98;46.85;100629.97;2104851;27;47715;-61
2022/04/20 00:36:15;;;;;;;;;28.50;28.25;;;;;15.98;47.03;100623.75;2108783;27;47684;-62
2022/04/20 00:37:15;;;;;;;;;34.75;29.00;;;;;15.96;46.97;100621.16;2103009;27;47801;-63
2022/04/20 00:38:17;;;;;;;;;25.25;24.00;;;;;15.95;47.43;100626.56;2099364;28;47937;-61
2022/04/20 00:39:18;;;;;;;;;34.60;30.20;;;;;15.92;47.09;100622.22;2101845;28;48012;-62
2022/04/20 00:40:18;;;;;;;;;32.75;29.75;;;;;15.93;47.14;100629.31;2106663;27;47761;-62
2022/04/20 00:41:19;;;;;;;;;31.00;29.00;;;;;15.92;47.45;100624.91;2106524;27;47594;-62
2022/04/20 00:42:22;;;;;;;;;32.00;29.50;;;;;15.91;47.15;100628.53;2100953;28;47656;-62
2022/04/20 00:43:22;;;;;;;;;24.80;23.80;;;;;15.91;47.47;100624.97;2096842;28;47625;-62
2022/04/20 00:44:25;;;;;;;;;26.25;26.25;;;;;15.89;47.62;100627.72;2097315;28;47151;-62
2022/04/20 00:45:27;;;;;;;;;31.80;30.60;;;;;15.87;47.28;100625.09;2096865;28;47927;-61
2022/04/20 00:46:28;;;;;;;;;34.40;30.40;;;;;15.87;47.29;100621.56;2097107;28;47870;-62
2022/04/20 00:47:29;;;;;;;;;32.80;30.40;;;;;15.86;47.19;100623.34;2101530;28;47940;-62
2022/04/20 00:48:32;;;;;;;;;32.00;29.40;;;;;15.86;47.65;100625.16;2102342;28;46466;-62
2022/04/20 00:49:36;;;;;;;;;34.00;30.00;;;;;15.85;47.57;100623.44;2097275;28;47555;-63
2022/04/20 00:50:38;;;;;;;;;34.40;30.80;;;;;15.84;47.34;100622.56;2096895;28;47254;-61
2022/04/20 00:51:58;;;;;;;;;31.00;29.40;;;;;15.84;47.61;100621.69;2096986;28;47507;-63
2022/04/20 00:52:59;;;;;;;;;34.20;31.40;;;;;15.84;47.46;100622.56;2099643;28;47692;-62
2022/04/20 00:54:00;;;;;;;;;30.00;28.50;;;;;15.85;47.71;100618.94;2097274;28;47948;-63
2022/04/20 00:55:00;;;;;;;;;35.40;31.60;;;;;15.85;47.29;100615.41;2097149;28;47947;-61
2022/04/20 00:56:01;;;;;;;;;34.00;32.00;;;;;15.83;47.60;100617.28;2098371;28;47506;-60
2022/04/20 00:57:02;;;;;;;;;33.50;30.50;;;;;15.82;47.86;100612.88;2105246;28;47690;-61
2022/04/20 00:58:02;;;;;;;;;34.00;31.00;;;;;15.82;47.23;100618.22;2078737;28;47085;-61
2022/04/20 00:59:03;;;;;;;;;27.00;26.50;;;;;15.81;47.60;100617.34;2087151;28;47938;-61
2022/04/20 01:00:04;;;;;;;;;38.00;31.75;;;;;15.81;47.32;100616.50;2104257;28;47906;-61
2022/04/20 01:01:05;;;;;;;;;34.00;30.20;;;;;15.82;47.84;100613.75;2096250;28;47769;-61
2022/04/20 01:02:05;;;;;;;;;33.00;31.00;;;;;15.83;47.89;100615.47;2096189;28;48168;-61
2022/04/20 01:03:06;;;;;;;;;25.25;24.75;;;;;15.84;47.50;100616.34;2102256;28;47415;-61
2022/04/20 01:04:06;;;;;;;;;38.75;33.75;;;;;15.84;47.46;100611.88;2105305;28;47849;-62
2022/04/20 01:05:07;;;;;;;;;37.00;33.50;;;;;15.83;47.85;100610.13;2105474;28;47237;-62
2022/04/20 01:06:08;;;;;;;;;38.50;33.25;;;;;15.82;47.87;100607.53;2104694;28;47879;-61
2022/04/20 01:07:11;;;;;;;;;38.25;33.75;;;;;15.83;47.59;100614.63;2086965;28;47833;-62
2022/04/20 01:08:11;;;;;;;;;33.00;31.00;;;;;15.81;47.48;100612.00;2086073;28;47749;-62
2022/04/20 01:09:12;;;;;;;;;33.75;31.25;;;;;15.81;47.44;100613.81;2087193;28;46525;-61
2022/04/20 01:10:12;;;;;;;;;35.50;31.50;;;;;15.78;47.59;100616.63;2087562;28;47189;-62
2022/04/20 01:11:13;;;;;;;;;38.50;33.00;;;;;15.77;47.92;100612.22;2093806;28;47513;-61
2022/04/20 01:12:15;;;;;;;;;38.75;34.00;;;;;15.76;48.11;100610.50;2094117;28;47530;-60
2022/04/20 01:13:16;;;;;;;;;40.00;34.20;;;;;15.76;47.67;100610.50;2105054;28;47235;-62
2022/04/20 01:14:16;;;;;;;;;36.50;31.75;;;;;15.75;47.88;100606.94;2104951;28;47607;-62
2022/04/20 01:15:17;;;;;;;;;36.75;33.00;;;;;15.74;47.85;100610.53;2105557;28;46502;-62
2022/04/20 01:16:17;;;;;;;;;34.75;32.25;;;;;15.74;47.95;100609.66;2105227;28;48175;-63
2022/04/20 01:17:18;;;;;;;;;42.00;34.00;;;;;15.73;48.24;100607.94;2103790;28;48034;-62
2022/04/20 01:18:18;;;;;;;;;32.50;29.00;;;;;15.71;47.80;100608.00;2103191;28;47655;-61
2022/04/20 01:19:19;;;;;;;;;36.25;32.50;;;;;15.72;48.17;100608.88;2097955;28;47531;-62
2022/04/20 01:20:19;;;;;;;;;36.50;32.50;;;;;15.72;48.02;100608.88;2099218;28;47195;-61
2022/04/20 01:21:22;;;;;;;;;41.50;34.00;;;;;15.72;48.09;100603.50;2105279;28;47237;-61
2022/04/20 01:22:22;;;;;;;;;38.80;33.20;;;;;15.73;47.98;100607.94;2104850;28;47686;-62
2022/04/20 01:23:22;;;;;;;;;34.25;31.25;;;;;15.72;47.82;100603.50;2101354;28;47675;-62
2022/04/20 01:24:23;;;;;;;;;42.50;34.75;;;;;15.71;47.75;100607.13;2105184;28;48256;-62
2022/04/20 01:25:23;;;;;;;;;37.25;32.00;;;;;15.69;47.90;100600.97;2105301;28;48165;-63
2022/04/20 01:26:25;;;;;;;;;35.50;31.00;;;;;15.68;48.07;100599.25;2105109;28;47774;-62
2022/04/20 01:27:25;;;;;;;;;37.80;31.80;;;;;15.68;48.29;100597.44;2104986;28;47905;-62
2022/04/20 01:28:26;;;;;;;;;39.50;34.75;;;;;15.67;48.43;100595.72;2104905;28;47691;-62
2022/04/20 01:29:27;;;;;;;;;31.25;29.75;;;;;15.67;48.22;100597.50;2105254;28;47923;-62
2022/04/20 01:30:27;;;;;;;;;33.50;31.50;;;;;15.65;48.42;100594.91;2105236;28;48136;-62
2022/04/20 01:31:29;;;;;;;;;42.75;35.50;;;;;15.67;48.48;100600.19;2104822;28;46679;-62
2022/04/20 01:32:30;;;;;;;;;38.20;32.00;;;;;15.66;48.06;100603.81;2104782;28;47597;-61
2022/04/20 01:33:30;;;;;;;;;37.25;32.75;;;;;15.65;47.93;100600.25;2100269;28;47815;-61
2022/04/20 01:34:32;;;;;;;;;37.00;33.75;;;;;15.64;48.00;100594.97;2099834;28;47649;-61
2022/04/20 01:35:32;;;;;;;;;37.20;32.00;;;;;15.63;48.38;100591.44;2086708;28;48456;-61
2022/04/20 01:36:33;;;;;;;;;42.25;33.25;;;;;15.62;48.29;100597.69;2087210;28;47814;-61
2022/04/20 01:37:34;;;;;;;;;36.00;31.75;;;;;15.62;48.31;100595.03;2104918;28;47625;-61
2022/04/20 01:38:35;;;;;;;;;39.00;34.00;;;;;15.59;48.42;100595.13;2078555;28;47704;-61
2022/04/20 01:39:36;;;;;;;;;32.00;29.40;;;;;15.57;48.35;100594.34;2077596;28;48513;-61
2022/04/20 01:40:36;;;;;;;;;32.00;31.00;;;;;15.54;48.77;100595.34;2087937;28;47555;-62
2022/04/20 01:41:37;;;;;;;;;31.50;30.50;;;;;15.54;48.88;100598.03;2092715;28;48192;-62
2022/04/20 01:42:37;;;;;;;;;34.75;31.75;;;;;15.53;48.62;100600.78;2105044;28;47343;-62
2022/04/20 01:43:37;;;;;;;;;33.75;29.00;;;;;15.50;48.41;100599.09;2104901;28;48013;-60
2022/04/20 01:44:38;;;;;;;;;38.50;31.00;;;;;15.51;48.36;100600.84;2105052;27;47881;-62
2022/04/20 01:45:38;;;;;;;;;38.75;33.00;;;;;15.50;48.52;100601.78;2105096;28;47398;-61
2022/04/20 01:46:39;;;;;;;;;41.75;35.75;;;;;15.49;48.50;100608.03;2105287;28;47960;-61
2022/04/20 01:47:39;;;;;;;;;34.00;29.75;;;;;15.47;48.82;100603.69;2104116;28;48024;-62
2022/04/20 01:48:40;;;;;;;;;38.25;32.75;;;;;15.47;48.46;100601.88;2102979;28;46650;-61
2022/04/20 01:49:40;;;;;;;;;36.75;31.75;;;;;15.45;48.94;100605.56;2089254;28;47440;-62
2022/04/20 01:52:00;;;;;;;;;36.20;32.40;;;;;15.44;48.71;100606.50;2098226;28;47727;-62
2022/04/20 01:53:00;;;;;;;;;33.75;30.00;;;;;15.44;48.94;100609.19;2104363;28;47334;-60
2022/04/20 01:54:01;;;;;;;;;37.00;33.00;;;;;15.44;48.69;100603.84;2098889;28;46470;-61
2022/04/20 01:55:01;;;;;;;;;39.00;34.50;;;;;15.44;48.73;100602.03;2097828;28;47498;-60
2022/04/20 01:56:06;;;;;;;;;36.50;33.25;;;;;15.44;48.58;100604.69;2096071;28;46976;-61
2022/04/20 01:57:07;;;;;;;;;39.20;35.40;;;;;15.44;48.88;100604.69;2096663;28;47949;-61
2022/04/20 01:58:07;;;;;;;;;35.25;32.25;;;;;15.43;48.69;100604.78;2104880;28;47996;-60
2022/04/20 01:59:09;;;;;;;;;31.25;29.00;;;;;15.41;49.11;100599.50;2103860;28;47474;-62
2022/04/20 02:00:10;;;;;;;;;44.60;37.60;;;;;15.40;48.71;100600.44;2104626;28;47659;-62
2022/04/20 02:02:35;;;;;;;;;39.60;34.20;;;;;15.38;49.17;100602.31;2086590;28;48187;-60
2022/04/20 02:03:35;;;;;;;;;41.20;35.00;;;;;15.38;48.68;100612.13;2104709;28;48061;-62
2022/04/20 02:04:35;;;;;;;;;44.75;38.00;;;;;15.36;48.75;100614.84;2104874;28;47783;-62
2022/04/20 02:05:36;;;;;;;;;44.00;37.00;;;;;15.35;49.42;100612.25;2104693;28;47857;-61
2022/04/20 02:06:36;;;;;;;;;42.75;36.25;;;;;15.34;48.87;100607.84;2102773;28;47391;-61
2022/04/20 02:07:38;;;;;;;;;39.00;33.00;;;;;15.32;49.39;100608.78;2096777;28;47655;-61
2022/04/20 02:08:38;;;;;;;;;47.40;39.40;;;;;15.31;48.96;100607.03;2102947;28;48112;-61
2022/04/20 02:09:39;;;;;;;;;44.50;35.50;;;;;15.29;49.03;100611.59;2104747;28;47592;-62
2022/04/20 02:10:39;;;;;;;;;44.75;37.00;;;;;15.27;49.44;100605.44;2105173;28;47519;-61
2022/04/20 02:11:39;;;;;;;;;46.50;39.00;;;;;15.24;49.02;100608.22;2095902;28;47219;-60
2022/04/20 02:12:40;;;;;;;;;43.50;37.25;;;;;15.22;49.08;100602.06;2098270;28;47374;-61
2022/04/20 02:13:40;;;;;;;;;42.25;35.25;;;;;15.22;49.12;100606.56;2102047;28;47891;-62
2022/04/20 02:14:41;;;;;;;;;43.75;38.00;;;;;15.20;49.30;100603.09;2091983;28;47513;-61
2022/04/20 02:15:41;;;;;;;;;44.50;37.00;;;;;15.18;49.08;100603.16;2095284;28;47481;-61
2022/04/20 02:16:41;;;;;;;;;47.00;39.50;;;;;15.16;49.53;100604.16;2095043;28;47804;-62
2022/04/20 02:17:42;;;;;;;;;43.75;37.50;;;;;15.14;49.20;100608.72;2096202;28;47390;-63
2022/04/20 02:18:42;;;;;;;;;44.75;36.50;;;;;15.12;49.70;100600.75;2104082;28;47407;-61
2022/04/20 02:19:43;;;;;;;;;44.50;38.25;;;;;15.10;49.53;100596.38;2112277;27;48400;-61
2022/04/20 02:20:47;;;;;;;;;42.25;36.00;;;;;15.09;49.85;100598.19;2113293;27;47559;-61
2022/04/20 02:21:47;;;;;;;;;45.00;38.00;;;;;15.09;49.32;100602.66;2111836;27;47579;-62
2022/04/20 02:22:48;;;;;;;;;49.50;40.00;;;;;15.08;49.41;100587.56;2112249;27;47666;-61
2022/04/20 02:23:48;;;;;;;;;49.00;39.00;;;;;15.08;49.45;100592.91;2096591;27;46936;-62
2022/04/20 02:24:48;;;;;;;;;45.50;37.50;;;;;15.07;49.49;100588.50;2106264;27;47497;-62
2022/04/20 02:25:49;;;;;;;;;42.50;35.75;;;;;15.06;49.64;100589.44;2111686;27;47484;-62
2022/04/20 02:26:49;;;;;;;;;45.50;37.25;;;;;15.04;49.90;100589.50;2111467;27;47220;-62
2022/04/20 02:27:50;;;;;;;;;44.25;38.00;;;;;15.02;49.69;100584.22;2109544;27;45551;-62
2022/04/20 02:28:50;;;;;;;;;41.75;36.00;;;;;15.01;49.68;100585.16;2112980;27;48361;-62
2022/04/20 02:29:50;;;;;;;;;46.75;38.75;;;;;14.99;49.81;100584.38;2109529;27;47368;-62
2022/04/20 02:30:51;;;;;;;;;44.25;36.75;;;;;14.97;49.79;100580.00;2109777;27;47410;-62
2022/04/20 02:31:51;;;;;;;;;47.75;37.50;;;;;14.94;49.99;100585.47;2112859;27;47744;-62
2022/04/20 02:32:52;;;;;;;;;47.25;39.25;;;;;14.94;50.25;100577.47;2105875;27;47579;-62
2022/04/20 02:33:52;;;;;;;;;44.25;37.50;;;;;14.93;49.91;100575.72;2109752;27;48539;-63
2022/04/20 02:34:53;;;;;;;;;44.25;36.00;;;;;14.92;50.30;100565.97;2104613;27;48064;-62
2022/04/20 02:35:53;;;;;;;;;44.50;36.75;;;;;14.92;50.24;100576.66;2106117;27;47650;-60
2022/04/20 02:36:54;;;;;;;;;38.25;33.00;;;;;14.91;49.94;100581.13;2113290;27;47609;-62
2022/04/20 02:37:54;;;;;;;;;43.75;37.50;;;;;14.91;50.27;100572.25;2109672;27;47576;-62
2022/04/20 02:38:55;;;;;;;;;47.25;39.75;;;;;14.91;50.13;100573.13;2106529;27;47756;-62
2022/04/20 02:39:55;;;;;;;;;45.75;39.25;;;;;14.91;50.28;100569.56;2112703;27;47483;-62
2022/04/20 02:40:56;;;;;;;;;45.50;39.25;;;;;14.89;50.30;100572.31;2105621;27;47434;-62
2022/04/20 02:41:58;;;;;;;;;47.00;38.75;;;;;14.89;49.98;100564.31;2101520;28;47461;-61
2022/04/20 02:42:58;;;;;;;;;41.80;35.80;;;;;14.91;50.10;100570.44;2092919;28;47902;-62
2022/04/20 02:43:59;;;;;;;;;49.50;39.25;;;;;14.91;50.44;100570.44;2103899;28;48051;-62
2022/04/20 02:45:00;;;;;;;;;46.00;39.50;;;;;14.94;50.23;100569.44;2104495;28;48148;-61
2022/04/20 02:46:01;;;;;;;;;44.60;38.00;;;;;14.95;50.03;100558.69;2104662;28;47613;-60
2022/04/20 02:47:03;;;;;;;;;42.80;35.60;;;;;14.96;50.09;100564.91;2090889;28;47716;-61
2022/04/20 02:48:04;;;;;;;;;53.20;40.00;;;;;14.97;50.04;100559.47;2082931;28;47220;-62
2022/04/20 02:49:05;;;;;;;;;44.00;37.25;;;;;14.99;50.43;100567.44;2087053;28;45972;-62
2022/04/20 02:50:07;;;;;;;;;41.00;35.00;;;;;15.00;50.33;100558.50;2091725;28;47848;-62
2022/04/20 02:51:08;;;;;;;;;43.80;38.20;;;;;15.00;50.12;100558.50;2087054;28;48152;-61
2022/04/20 02:52:08;;;;;;;;;47.25;39.50;;;;;15.02;50.13;100561.97;2086867;28;47832;-61
2022/04/20 02:53:09;;;;;;;;;42.50;37.25;;;;;15.03;49.80;100555.69;2092421;28;47078;-61
2022/04/20 02:54:09;;;;;;;;;46.25;38.75;;;;;15.04;49.86;100554.75;2095081;28;48041;-62
2022/04/20 02:55:10;;;;;;;;;45.75;38.50;;;;;15.07;50.24;100559.09;2095090;28;47918;-62
2022/04/20 02:56:10;;;;;;;;;39.25;33.00;;;;;15.07;50.34;100551.09;2095240;28;47746;-61
2022/04/20 02:57:11;;;;;;;;;47.75;39.25;;;;;15.09;50.02;100551.88;2095357;28;47415;-62
2022/04/20 02:58:11;;;;;;;;;46.00;37.50;;;;;15.10;49.93;100558.97;2094635;28;47352;-61
2022/04/20 02:59:12;;;;;;;;;49.50;40.50;;;;;15.10;50.02;100553.63;2094965;28;47345;-61
2022/04/20 03:00:13;;;;;;;;;44.25;35.50;;;;;15.09;49.69;100552.75;2095125;28;47836;-62
2022/04/20 03:01:13;;;;;;;;;45.20;38.00;;;;;15.10;49.82;100550.94;2091905;28;47411;-61
2022/04/20 03:02:13;;;;;;;;;48.75;39.50;;;;;15.08;50.17;100553.69;2085899;28;47911;-62
2022/04/20 03:03:14;;;;;;;;;47.25;38.25;;;;;15.08;49.81;100558.16;2086960;28;47746;-62
2022/04/20 03:04:14;;;;;;;;;45.25;37.75;;;;;15.08;50.17;100551.00;2094462;28;47571;-62
2022/04/20 03:05:14;;;;;;;;;46.00;38.50;;;;;15.07;49.85;100556.44;2086640;28;47751;-63
2022/04/20 03:06:15;;;;;;;;;49.50;41.25;;;;;15.07;49.79;100564.44;2077208;28;47494;-62
2022/04/20 03:07:15;;;;;;;;;49.50;41.00;;;;;15.05;49.90;100552.97;2078259;28;48052;-61
2022/04/20 03:08:16;;;;;;;;;51.25;42.00;;;;;15.04;50.16;100553.91;2093981;28;47547;-62
2022/04/20 03:09:16;;;;;;;;;46.25;38.00;;;;;15.02;50.24;100553.97;2092950;28;47493;-61
2022/04/20 03:10:17;;;;;;;;;47.75;39.75;;;;;15.00;50.06;100551.38;2094790;28;47931;-62
2022/04/20 03:11:17;;;;;;;;;45.75;37.25;;;;;15.00;50.38;100553.16;2095213;28;48181;-63
2022/04/20 03:12:18;;;;;;;;;46.25;36.75;;;;;14.98;50.25;100549.66;2095140;28;47907;-62
2022/04/20 03:13:18;;;;;;;;;48.50;40.75;;;;;14.97;50.31;100539.91;2087587;28;47406;-62
2022/04/20 03:14:19;;;;;;;;;47.25;39.00;;;;;14.97;50.13;100548.78;2086323;28;47233;-62
2022/04/20 03:15:19;;;;;;;;;45.25;38.75;;;;;14.97;50.25;100545.25;2086430;28;47356;-62
2022/04/20 03:16:20;;;;;;;;;50.00;40.00;;;;;14.98;50.29;100545.19;2095235;28;47583;-61
2022/04/20 03:17:24;;;;;;;;;50.00;40.75;;;;;14.98;50.39;100539.84;2094883;28;47446;-62
2022/04/20 03:18:24;;;;;;;;;47.00;40.00;;;;;14.97;50.43;100546.13;2093858;28;47942;-61
2022/04/20 03:19:25;;;;;;;;;49.00;41.00;;;;;15.00;50.34;100545.16;2091212;28;47441;-63
2022/04/20 03:20:25;;;;;;;;;47.00;40.00;;;;;14.98;50.37;100539.84;2095785;28;47436;-61
2022/04/20 03:21:26;;;;;;;;;50.25;40.25;;;;;14.98;50.06;100542.50;2104735;28;47749;-62
2022/04/20 03:22:27;;;;;;;;;44.80;38.40;;;;;14.98;50.47;100533.63;2099443;28;47862;-61
2022/04/20 03:23:28;;;;;;;;;47.25;39.50;;;;;14.98;50.24;100542.50;2095365;28;47914;-62
2022/04/20 03:24:29;;;;;;;;;45.40;38.40;;;;;14.99;50.05;100544.28;2089614;27;47700;-62
2022/04/20 03:25:29;;;;;;;;;42.75;37.00;;;;;14.98;50.02;100547.00;2104924;27;47764;-62
2022/04/20 03:26:30;;;;;;;;;47.25;39.75;;;;;14.98;50.08;100541.66;2090103;28;47417;-61
2022/04/20 03:27:30;;;;;;;;;48.25;41.25;;;;;14.96;50.40;100547.06;2089961;28;47458;-61
2022/04/20 03:28:31;;;;;;;;;46.50;39.50;;;;;14.96;50.16;100547.06;2105891;27;47410;-62
2022/04/20 03:29:31;;;;;;;;;48.75;41.25;;;;;14.96;50.34;100541.72;2100474;27;47292;-62
2022/04/20 03:30:32;;;;;;;;;48.00;39.50;;;;;14.96;50.55;100547.06;2101526;27;47669;-61
2022/04/20 03:31:34;;;;;;;;;47.40;40.20;;;;;14.97;50.16;100548.78;2104482;27;47578;-62
2022/04/20 03:32:35;;;;;;;;;46.80;39.60;;;;;14.97;50.25;100550.59;2104665;27;47632;-62
2022/04/20 03:33:37;;;;;;;;;49.40;42.20;;;;;14.96;50.20;100555.06;2104414;27;46673;-62
2022/04/20 03:34:38;;;;;;;;;50.40;41.20;;;;;14.97;50.47;100554.13;2102156;27;47842;-61
2022/04/20 03:35:39;;;;;;;;;46.80;39.60;;;;;14.97;50.29;100551.47;2098886;28;47237;-62
2022/04/20 03:36:39;;;;;;;;;49.75;41.00;;;;;14.98;50.15;100555.88;2097639;28;47704;-61
2022/04/20 03:37:39;;;;;;;;;48.75;41.00;;;;;14.97;50.17;100563.97;2092301;28;47574;-61
2022/04/20 03:38:40;;;;;;;;;47.25;40.00;;;;;14.95;50.61;100556.00;2086222;28;47709;-61
2022/04/20 03:39:41;;;;;;;;;51.50;41.50;;;;;14.94;50.23;100564.97;2089021;28;47881;-61
2022/04/20 03:40:41;;;;;;;;;49.75;41.75;;;;;14.92;50.35;100558.81;2077504;28;47446;-61
2022/04/20 03:41:42;;;;;;;;;51.25;42.00;;;;;14.89;50.78;100569.66;2078247;28;47191;-62
2022/04/20 03:42:42;;;;;;;;;50.00;42.75;;;;;14.87;50.29;100560.84;2102965;27;47720;-62
2022/04/20 03:43:42;;;;;;;;;52.75;44.00;;;;;14.84;50.62;100566.28;2103535;27;47585;-62
2022/04/20 03:44:43;;;;;;;;;50.50;42.25;;;;;14.83;50.75;100569.88;2112323;27;47418;-60
2022/04/20 03:45:43;;;;;;;;;54.50;43.75;;;;;14.82;50.75;100567.28;2106373;27;46672;-63
2022/04/20 03:46:44;;;;;;;;;52.50;43.75;;;;;14.80;50.45;100571.81;2108507;27;47770;-62
2022/04/20 03:47:44;;;;;;;;;52.50;42.00;;;;;14.78;50.66;100569.22;2092495;28;47753;-60
2022/04/20 03:48:45;;;;;;;;;49.00;40.75;;;;;14.76;50.74;100573.75;2088416;28;47931;-61
2022/04/20 03:49:46;;;;;;;;;47.00;38.80;;;;;14.75;50.58;100565.81;2108463;27;46836;-61
2022/04/20 03:50:46;;;;;;;;;52.00;41.50;;;;;14.73;50.91;100569.38;2108772;27;47248;-61
2022/04/20 03:51:47;;;;;;;;;52.50;43.00;;;;;14.72;50.66;100572.13;2106212;27;47524;-61
2022/04/20 03:52:47;;;;;;;;;49.50;41.00;;;;;14.71;50.54;100573.94;2110614;27;47498;-61
2022/04/20 03:53:48;;;;;;;;;48.50;40.50;;;;;14.71;50.84;100573.94;2107229;27;48111;-62
2022/04/20 03:54:48;;;;;;;;;49.75;40.75;;;;;14.69;50.73;100572.25;2107936;27;47861;-62
2022/04/20 03:55:48;;;;;;;;;51.75;43.50;;;;;14.69;50.69;100580.28;2110466;27;47303;-62
2022/04/20 03:57:04;;;;;;;;;53.25;43.25;;;;;14.67;50.92;100580.34;2105648;27;47978;-62
2022/04/20 03:58:05;;;;;;;;;49.60;41.60;;;;;14.66;50.95;100575.06;2107238;27;47669;-62
2022/04/20 03:59:05;;;;;;;;;49.00;41.00;;;;;14.64;50.96;100582.28;2111076;27;48018;-62
2022/04/20 04:00:06;;;;;;;;;55.25;44.50;;;;;14.66;50.62;100588.41;2105793;27;46769;-59
2022/04/20 04:01:07;;;;;;;;;53.80;43.80;;;;;14.66;50.65;100589.28;2095019;28;47794;-60
2022/04/20 04:02:07;;;;;;;;;53.25;43.50;;;;;14.68;50.79;100597.22;2095936;28;47478;-60
2022/04/20 04:03:07;;;;;;;;;53.25;43.50;;;;;14.67;50.62;100585.69;2095914;28;48230;-60
2022/04/20 04:04:08;;;;;;;;;52.75;43.50;;;;;14.68;50.96;100597.22;2102238;28;47434;-60
2022/04/20 04:05:08;;;;;;;;;50.00;41.25;;;;;14.68;50.61;100592.75;2095220;28;47166;-60
2022/04/20 04:06:09;;;;;;;;;49.75;41.50;;;;;14.68;50.57;100595.44;2094953;28;47401;-60
2022/04/20 04:07:09;;;;;;;;;53.50;44.00;;;;;14.66;50.89;100583.94;2099482;28;47577;-60
2022/04/20 04:08:10;;;;;;;;;53.00;44.25;;;;;14.67;50.86;100593.69;2095846;28;46897;-59
2022/04/20 04:09:10;;;;;;;;;54.25;44.00;;;;;14.66;50.97;100589.28;2104082;28;47365;-58
2022/04/20 04:10:11;;;;;;;;;54.75;43.75;;;;;14.69;50.78;100583.81;2104271;28;47415;-58
2022/04/20 04:11:11;;;;;;;;;51.00;42.00;;;;;14.70;50.96;100587.34;2103336;28;47916;-58
2022/04/20 04:12:12;;;;;;;;;54.50;44.00;;;;;14.71;50.54;100586.41;2102575;28;47921;-59
2022/04/20 04:13:12;;;;;;;;;52.25;41.50;;;;;14.72;50.86;100582.81;2097014;28;47829;-59
2022/04/20 04:14:13;;;;;;;;;52.75;42.75;;;;;14.76;50.81;100588.91;2101340;28;47234;-57
2022/04/20 04:15:13;;;;;;;;;51.50;43.25;;;;;14.77;50.63;100577.31;2100510;28;48429;-58
2022/04/20 04:16:13;;;;;;;;;53.25;41.50;;;;;14.79;50.86;100578.09;2104061;28;47440;-57
2022/04/20 04:17:14;;;;;;;;;51.00;43.00;;;;;14.80;50.53;100572.69;2104270;28;46566;-59
2022/04/20 04:18:14;;;;;;;;;51.00;43.00;;;;;14.82;50.38;100575.28;2104140;28;47672;-58
2022/04/20 04:19:15;;;;;;;;;53.00;44.25;;;;;14.84;50.41;100578.75;2104078;28;47602;-57
2022/04/20 04:20:15;;;;;;;;;52.75;43.25;;;;;14.85;50.61;100575.16;2104311;28;46355;-59
2022/04/20 04:21:16;;;;;;;;;48.50;41.00;;;;;14.86;50.54;100568.88;2104009;28;47892;-59
2022/04/20 04:22:17;;;;;;;;;53.00;44.00;;;;;14.89;50.38;100574.13;2104157;28;47555;-60
2022/04/20 04:23:17;;;;;;;;;53.00;43.50;;;;;14.88;50.15;100567.91;2104092;28;48221;-59
2022/04/20 04:24:36;;;;;;;;;52.50;42.00;;;;;14.88;50.11;100570.56;2103936;28;47629;-58
2022/04/20 04:25:36;;;;;;;;;52.60;43.40;;;;;14.88;50.53;100567.03;2095670;28;48018;-58
2022/04/20 04:26:37;;;;;;;;;53.25;44.25;;;;;14.89;50.60;100568.78;2101146;28;47423;-58
2022/04/20 04:27:37;;;;;;;;;52.50;43.75;;;;;14.89;50.52;100564.31;2094920;28;47544;-58
2022/04/20 04:28:37;;;;;;;;;52.00;41.75;;;;;14.89;50.19;100566.97;2094975;28;47478;-57
2022/04/20 04:29:38;;;;;;;;;52.00;43.75;;;;;14.90;50.39;100557.16;2104029;28;46954;-60
2022/04/20 04:30:39;;;;;;;;;57.00;46.75;;;;;14.90;50.08;100563.38;2104024;27;47778;-60
2022/04/20 04:31:42;;;;;;;;;53.00;43.50;;;;;14.90;50.02;100570.50;2094116;28;47717;-59
2022/04/20 04:32:42;;;;;;;;;52.60;43.20;;;;;14.89;50.42;100561.63;2094979;28;47505;-58
2022/04/20 04:33:43;;;;;;;;;52.50;43.00;;;;;14.90;50.12;100576.72;2104378;28;47467;-58
2022/04/20 04:34:44;;;;;;;;;52.00;42.75;;;;;14.91;50.13;100570.44;2103588;28;47366;-58
2022/04/20 04:35:44;;;;;;;;;49.00;40.00;;;;;14.91;50.25;100570.44;2103305;28;47651;-59
2022/04/20 04:36:45;;;;;;;;;55.25;45.25;;;;;14.91;50.32;100570.44;2095371;28;47463;-59
2022/04/20 04:37:45;;;;;;;;;55.00;45.50;;;;;14.92;50.44;100582.00;2100200;28;48027;-59
2022/04/20 04:38:46;;;;;;;;;56.75;45.75;;;;;14.90;49.97;100574.06;2103942;28;47324;-58
2022/04/20 04:39:46;;;;;;;;;53.50;44.00;;;;;14.89;50.32;100572.31;2103918;28;47293;-58